sensor_id;sensor_type;location;lat;lon;timestamp;noise_LAeq;noise_LA_min;noise_LA_max;noise_LA01;noise_LA95
69610;Laerm;56816;52.192;4.474;2022-08-20T00:00:00;45.04;41.48;49.77;;
69610;Laerm;56816;52.192;4.474;2022-08-20T00:00:12;42.37;39.35;45.98;;
69610;Laerm;56816;52.192;4.474;2022-08-20T00:00:24;39.90;36.95;45.01;;
69610;Laerm;56816;52.192;4.474;2022-08-20T00:00:36;37.01;33.43;40.62;;
69610;Laerm;56816;52.192;4.474;2022-08-20T00:00:48;36.59;32.48;50.51;;
69610;Laerm;56816;52.192;4.474;2022-08-20T00:00:58;34.68;32.02;39.17;;
69610;Laerm;56816;52.192;4.474;2022-08-20T00:01:09;34.95;31.66;37.52;;
69610;Laerm;56816;52.192;4.474;2022-08-20T00:01:20;35.47;31.96;39.81;;
69610;Laerm;56816;52.192;4.474;2022-08-20T00:01:30;34.69;32.33;42.03;;
69610;Laerm;56816;52.192;4.474;2022-08-20T00:01:40;34.35;31.79;37.61;;
69610;Laerm;56816;52.192;4.474;2022-08-20T00:01:51;34.38;32.49;37.20;;
69610;Laerm;56816;52.192;4.474;2022-08-20T00:02:01;35.51;33.00;38.94;;
69610;Laerm;56816;52.192;4.474;2022-08-20T00:02:11;34.30;32.53;37.45;;
69610;Laerm;56816;52.192;4.474;2022-08-20T00:02:21;37.12;33.75;40.75;;
69610;Laerm;56816;52.192;4.474;2022-08-20T00:02:41;38.87;35.55;43.54;;
69610;Laerm;56816;52.192;4.474;2022-08-20T00:02:53;43.66;35.83;49.35;;
69610;Laerm;56816;52.192;4.474;2022-08-20T00:03:05;40.41;34.14;47.83;;
69610;Laerm;56816;52.192;4.474;2022-08-20T00:03:19;36.97;33.85;40.91;;
69610;Laerm;56816;52.192;4.474;2022-08-20T00:03:31;38.82;35.73;42.61;;
69610;Laerm;56816;52.192;4.474;2022-08-20T00:03:42;38.46;34.78;43.09;;
69610;Laerm;56816;52.192;4.474;2022-08-20T00:03:52;36.43;33.60;39.85;;
69610;Laerm;56816;52.192;4.474;2022-08-20T00:04:03;37.74;35.48;39.90;;
69610;Laerm;56816;52.192;4.474;2022-08-20T00:04:13;38.58;36.08;42.04;;
69610;Laerm;56816;52.192;4.474;2022-08-20T00:04:23;38.47;35.97;43.24;;
69610;Laerm;56816;52.192;4.474;2022-08-20T00:04:33;36.96;33.61;40.51;;
69610;Laerm;56816;52.192;4.474;2022-08-20T00:04:44;38.96;34.04;43.26;;
69610;Laerm;56816;52.192;4.474;2022-08-20T00:04:55;35.19;32.74;38.56;;
69610;Laerm;56816;52.192;4.474;2022-08-20T00:05:05;36.66;33.35;40.66;;
69610;Laerm;56816;52.192;4.474;2022-08-20T00:05:16;38.65;33.72;44.83;;
69610;Laerm;56816;52.192;4.474;2022-08-20T00:05:30;39.63;34.66;44.59;;
69610;Laerm;56816;52.192;4.474;2022-08-20T00:05:43;38.73;35.58;43.64;;
69610;Laerm;56816;52.192;4.474;2022-08-20T00:05:54;40.39;37.02;44.33;;
69610;Laerm;56816;52.192;4.474;2022-08-20T00:06:10;38.96;36.38;43.98;;
69610;Laerm;56816;52.192;4.474;2022-08-20T00:06:21;37.27;34.31;40.16;;
69610;Laerm;56816;52.192;4.474;2022-08-20T00:06:32;36.28;33.92;39.33;;
69610;Laerm;56816;52.192;4.474;2022-08-20T00:06:43;38.64;35.08;43.78;;
69610;Laerm;56816;52.192;4.474;2022-08-20T00:06:54;37.78;33.99;41.86;;
69610;Laerm;56816;52.192;4.474;2022-08-20T00:07:04;37.58;33.67;42.03;;
69610;Laerm;56816;52.192;4.474;2022-08-20T00:07:15;37.52;34.19;40.94;;
69610;Laerm;56816;52.192;4.474;2022-08-20T00:07:25;37.06;34.42;40.46;;
69610;Laerm;56816;52.192;4.474;2022-08-20T00:07:36;36.25;33.32;38.39;;
69610;Laerm;56816;52.192;4.474;2022-08-20T00:07:46;39.04;34.84;43.30;;
69610;Laerm;56816;52.192;4.474;2022-08-20T00:07:56;53.11;38.62;64.92;;
69610;Laerm;56816;52.192;4.474;2022-08-20T00:08:08;45.63;35.95;53.88;;
69610;Laerm;56816;52.192;4.474;2022-08-20T00:08:19;38.31;35.78;41.78;;
69610;Laerm;56816;52.192;4.474;2022-08-20T00:08:30;38.30;35.84;41.33;;
69610;Laerm;56816;52.192;4.474;2022-08-20T00:08:41;36.83;34.50;39.69;;
69610;Laerm;56816;52.192;4.474;2022-08-20T00:08:51;35.76;33.05;39.18;;
69610;Laerm;56816;52.192;4.474;2022-08-20T00:09:02;37.11;33.70;41.07;;
69610;Laerm;56816;52.192;4.474;2022-08-20T00:09:12;37.65;35.23;40.57;;
69610;Laerm;56816;52.192;4.474;2022-08-20T00:09:22;54.79;38.39;66.47;;
69610;Laerm;56816;52.192;4.474;2022-08-20T00:09:33;39.05;34.13;47.06;;
69610;Laerm;56816;52.192;4.474;2022-08-20T00:09:44;43.71;36.91;51.27;;
69610;Laerm;56816;52.192;4.474;2022-08-20T00:09:54;37.69;32.82;42.92;;
69610;Laerm;56816;52.192;4.474;2022-08-20T00:10:05;34.33;32.21;36.67;;
69610;Laerm;56816;52.192;4.474;2022-08-20T00:10:16;35.15;32.33;37.45;;
69610;Laerm;56816;52.192;4.474;2022-08-20T00:10:26;35.64;33.12;40.25;;
69610;Laerm;56816;52.192;4.474;2022-08-20T00:10:38;35.56;32.75;39.21;;
69610;Laerm;56816;52.192;4.474;2022-08-20T00:10:49;36.26;33.44;41.22;;
69610;Laerm;56816;52.192;4.474;2022-08-20T00:11:01;35.75;32.74;40.24;;
69610;Laerm;56816;52.192;4.474;2022-08-20T00:11:13;40.62;36.33;48.15;;
69610;Laerm;56816;52.192;4.474;2022-08-20T00:11:27;49.88;33.58;60.03;;
69610;Laerm;56816;52.192;4.474;2022-08-20T00:11:38;40.83;32.43;47.22;;
69610;Laerm;56816;52.192;4.474;2022-08-20T00:11:48;41.36;34.73;46.76;;
69610;Laerm;56816;52.192;4.474;2022-08-20T00:11:58;37.57;34.53;41.76;;
69610;Laerm;56816;52.192;4.474;2022-08-20T00:12:10;36.83;34.24;40.99;;
69610;Laerm;56816;52.192;4.474;2022-08-20T00:12:21;36.14;33.08;39.26;;
69610;Laerm;56816;52.192;4.474;2022-08-20T00:12:31;36.50;33.91;38.69;;
69610;Laerm;56816;52.192;4.474;2022-08-20T00:12:43;36.33;33.48;40.42;;
69610;Laerm;56816;52.192;4.474;2022-08-20T00:12:54;35.56;32.81;38.39;;
69610;Laerm;56816;52.192;4.474;2022-08-20T00:13:06;34.81;31.53;39.75;;
69610;Laerm;56816;52.192;4.474;2022-08-20T00:13:22;34.23;31.23;38.03;;
69610;Laerm;56816;52.192;4.474;2022-08-20T00:13:42;34.82;32.19;37.59;;
69610;Laerm;56816;52.192;4.474;2022-08-20T00:13:54;37.81;33.06;47.06;;
69610;Laerm;56816;52.192;4.474;2022-08-20T00:14:05;37.44;33.77;43.83;;
69610;Laerm;56816;52.192;4.474;2022-08-20T00:14:16;36.42;33.93;39.28;;
69610;Laerm;56816;52.192;4.474;2022-08-20T00:14:26;37.62;33.34;43.52;;
69610;Laerm;56816;52.192;4.474;2022-08-20T00:14:37;35.42;32.28;37.98;;
69610;Laerm;56816;52.192;4.474;2022-08-20T00:14:48;34.16;32.00;36.43;;
69610;Laerm;56816;52.192;4.474;2022-08-20T00:14:58;33.71;31.45;37.83;;
69610;Laerm;56816;52.192;4.474;2022-08-20T00:15:09;34.92;32.47;37.57;;
69610;Laerm;56816;52.192;4.474;2022-08-20T00:15:24;35.11;32.90;38.72;;
69610;Laerm;56816;52.192;4.474;2022-08-20T00:15:35;35.35;32.70;39.30;;
69610;Laerm;56816;52.192;4.474;2022-08-20T00:15:45;35.46;32.78;41.70;;
69610;Laerm;56816;52.192;4.474;2022-08-20T00:15:56;33.92;31.61;37.92;;
69610;Laerm;56816;52.192;4.474;2022-08-20T00:16:07;34.80;32.19;38.76;;
69610;Laerm;56816;52.192;4.474;2022-08-20T00:16:18;34.62;32.74;37.45;;
69610;Laerm;56816;52.192;4.474;2022-08-20T00:16:31;35.42;33.19;37.46;;
69610;Laerm;56816;52.192;4.474;2022-08-20T00:16:41;35.42;32.54;38.44;;
69610;Laerm;56816;52.192;4.474;2022-08-20T00:16:52;35.38;33.05;41.79;;
69610;Laerm;56816;52.192;4.474;2022-08-20T00:17:02;36.04;32.79;41.32;;
69610;Laerm;56816;52.192;4.474;2022-08-20T00:17:12;35.28;32.84;38.67;;
69610;Laerm;56816;52.192;4.474;2022-08-20T00:17:23;35.72;33.81;38.34;;
69610;Laerm;56816;52.192;4.474;2022-08-20T00:17:33;35.47;33.34;38.87;;
69610;Laerm;56816;52.192;4.474;2022-08-20T00:17:47;35.56;33.90;38.22;;
69610;Laerm;56816;52.192;4.474;2022-08-20T00:17:59;36.31;34.12;39.05;;
69610;Laerm;56816;52.192;4.474;2022-08-20T00:18:09;35.19;33.03;38.19;;
69610;Laerm;56816;52.192;4.474;2022-08-20T00:18:20;34.37;32.07;38.48;;
69610;Laerm;56816;52.192;4.474;2022-08-20T00:18:31;34.62;31.86;38.22;;
69610;Laerm;56816;52.192;4.474;2022-08-20T00:18:41;33.47;31.58;39.12;;
69610;Laerm;56816;52.192;4.474;2022-08-20T00:18:52;33.88;31.83;36.32;;
69610;Laerm;56816;52.192;4.474;2022-08-20T00:19:03;34.53;32.40;36.79;;
69610;Laerm;56816;52.192;4.474;2022-08-20T00:19:14;34.83;32.75;37.52;;
69610;Laerm;56816;52.192;4.474;2022-08-20T00:19:24;36.15;34.02;37.95;;
69610;Laerm;56816;52.192;4.474;2022-08-20T00:19:34;35.41;32.35;39.13;;
69610;Laerm;56816;52.192;4.474;2022-08-20T00:19:45;36.12;33.56;42.83;;
69610;Laerm;56816;52.192;4.474;2022-08-20T00:19:55;36.60;33.98;39.55;;
69610;Laerm;56816;52.192;4.474;2022-08-20T00:20:06;37.44;34.83;42.43;;
69610;Laerm;56816;52.192;4.474;2022-08-20T00:20:18;40.62;33.89;45.61;;
69610;Laerm;56816;52.192;4.474;2022-08-20T00:20:31;38.52;33.32;48.06;;
69610;Laerm;56816;52.192;4.474;2022-08-20T00:20:47;33.78;31.52;38.64;;
69610;Laerm;56816;52.192;4.474;2022-08-20T00:20:58;33.36;31.58;36.45;;
69610;Laerm;56816;52.192;4.474;2022-08-20T00:21:09;33.87;31.88;37.45;;
69610;Laerm;56816;52.192;4.474;2022-08-20T00:21:19;34.22;32.32;41.40;;
69610;Laerm;56816;52.192;4.474;2022-08-20T00:21:30;35.92;32.36;43.17;;
69610;Laerm;56816;52.192;4.474;2022-08-20T00:21:40;34.10;32.35;38.29;;
69610;Laerm;56816;52.192;4.474;2022-08-20T00:21:51;35.85;32.87;55.26;;
69610;Laerm;56816;52.192;4.474;2022-08-20T00:22:01;35.35;33.12;38.14;;
69610;Laerm;56816;52.192;4.474;2022-08-20T00:22:11;35.11;33.22;36.69;;
69610;Laerm;56816;52.192;4.474;2022-08-20T00:22:22;34.75;32.82;36.58;;
69610;Laerm;56816;52.192;4.474;2022-08-20T00:22:33;38.79;34.85;43.82;;
69610;Laerm;56816;52.192;4.474;2022-08-20T00:22:43;35.24;33.04;37.77;;
69610;Laerm;56816;52.192;4.474;2022-08-20T00:22:55;37.03;34.05;39.61;;
69610;Laerm;56816;52.192;4.474;2022-08-20T00:23:05;36.48;34.26;38.60;;
69610;Laerm;56816;52.192;4.474;2022-08-20T00:23:16;36.28;33.86;42.22;;
69610;Laerm;56816;52.192;4.474;2022-08-20T00:23:26;36.48;34.49;39.86;;
69610;Laerm;56816;52.192;4.474;2022-08-20T00:23:37;37.19;34.09;41.60;;
69610;Laerm;56816;52.192;4.474;2022-08-20T00:23:49;36.69;33.93;40.95;;
69610;Laerm;56816;52.192;4.474;2022-08-20T00:23:59;37.01;33.70;41.67;;
69610;Laerm;56816;52.192;4.474;2022-08-20T00:24:10;36.30;34.02;38.52;;
69610;Laerm;56816;52.192;4.474;2022-08-20T00:24:20;40.30;35.92;44.81;;
69610;Laerm;56816;52.192;4.474;2022-08-20T00:24:30;43.73;35.70;49.78;;
69610;Laerm;56816;52.192;4.474;2022-08-20T00:24:41;47.95;38.96;54.35;;
69610;Laerm;56816;52.192;4.474;2022-08-20T00:24:52;47.08;33.46;54.53;;
69610;Laerm;56816;52.192;4.474;2022-08-20T00:25:05;36.14;33.07;41.60;;
69610;Laerm;56816;52.192;4.474;2022-08-20T00:25:16;36.40;33.49;39.16;;
69610;Laerm;56816;52.192;4.474;2022-08-20T00:25:27;50.40;37.78;56.60;;
69610;Laerm;56816;52.192;4.474;2022-08-20T00:25:38;38.68;34.36;42.87;;
69610;Laerm;56816;52.192;4.474;2022-08-20T00:25:48;35.94;33.47;38.93;;
69610;Laerm;56816;52.192;4.474;2022-08-20T00:25:59;37.57;34.83;40.88;;
69610;Laerm;56816;52.192;4.474;2022-08-20T00:26:09;36.66;33.56;39.95;;
69610;Laerm;56816;52.192;4.474;2022-08-20T00:26:20;36.68;34.45;39.66;;
69610;Laerm;56816;52.192;4.474;2022-08-20T00:26:31;35.20;32.75;37.56;;
69610;Laerm;56816;52.192;4.474;2022-08-20T00:26:42;35.12;32.56;43.43;;
69610;Laerm;56816;52.192;4.474;2022-08-20T00:26:52;34.50;31.97;36.63;;
69610;Laerm;56816;52.192;4.474;2022-08-20T00:27:02;34.20;30.76;36.31;;
69610;Laerm;56816;52.192;4.474;2022-08-20T00:27:12;35.20;32.35;38.33;;
69610;Laerm;56816;52.192;4.474;2022-08-20T00:27:23;36.18;33.31;39.05;;
69610;Laerm;56816;52.192;4.474;2022-08-20T00:27:33;37.48;33.90;41.10;;
69610;Laerm;56816;52.192;4.474;2022-08-20T00:27:43;42.70;35.87;52.41;;
69610;Laerm;56816;52.192;4.474;2022-08-20T00:27:54;52.37;41.71;59.35;;
69610;Laerm;56816;52.192;4.474;2022-08-20T00:28:05;49.67;41.49;62.00;;
69610;Laerm;56816;52.192;4.474;2022-08-20T00:28:16;52.81;45.58;60.55;;
69610;Laerm;56816;52.192;4.474;2022-08-20T00:28:33;41.45;36.88;47.82;;
69610;Laerm;56816;52.192;4.474;2022-08-20T00:28:44;37.15;33.65;39.41;;
69610;Laerm;56816;52.192;4.474;2022-08-20T00:28:54;35.21;32.74;37.47;;
69610;Laerm;56816;52.192;4.474;2022-08-20T00:29:05;35.92;32.87;40.09;;
69610;Laerm;56816;52.192;4.474;2022-08-20T00:29:15;35.66;33.33;39.24;;
69610;Laerm;56816;52.192;4.474;2022-08-20T00:29:25;36.27;33.80;39.28;;
69610;Laerm;56816;52.192;4.474;2022-08-20T00:29:36;34.73;32.80;36.89;;
69610;Laerm;56816;52.192;4.474;2022-08-20T00:29:46;34.62;32.08;36.64;;
69610;Laerm;56816;52.192;4.474;2022-08-20T00:29:56;35.16;32.46;39.36;;
69610;Laerm;56816;52.192;4.474;2022-08-20T00:30:08;35.64;32.92;38.75;;
69610;Laerm;56816;52.192;4.474;2022-08-20T00:30:19;35.10;32.61;37.35;;
69610;Laerm;56816;52.192;4.474;2022-08-20T00:30:29;35.56;32.34;39.76;;
69610;Laerm;56816;52.192;4.474;2022-08-20T00:30:41;36.64;34.10;38.47;;
69610;Laerm;56816;52.192;4.474;2022-08-20T00:30:52;38.12;34.94;42.98;;
69610;Laerm;56816;52.192;4.474;2022-08-20T00:31:07;44.86;37.18;51.61;;
69610;Laerm;56816;52.192;4.474;2022-08-20T00:31:19;42.41;33.77;50.98;;
69610;Laerm;56816;52.192;4.474;2022-08-20T00:31:29;59.25;43.86;66.40;;
69610;Laerm;56816;52.192;4.474;2022-08-20T00:31:40;52.21;38.05;60.50;;
69610;Laerm;56816;52.192;4.474;2022-08-20T00:31:50;37.11;34.23;39.94;;
69610;Laerm;56816;52.192;4.474;2022-08-20T00:32:00;35.85;33.59;38.49;;
69610;Laerm;56816;52.192;4.474;2022-08-20T00:32:10;36.40;33.34;39.91;;
69610;Laerm;56816;52.192;4.474;2022-08-20T00:32:21;36.82;34.53;39.57;;
69610;Laerm;56816;52.192;4.474;2022-08-20T00:32:31;37.84;35.29;42.07;;
69610;Laerm;56816;52.192;4.474;2022-08-20T00:32:58;38.45;34.79;43.52;;
69610;Laerm;56816;52.192;4.474;2022-08-20T00:33:10;41.02;35.83;45.83;;
69610;Laerm;56816;52.192;4.474;2022-08-20T00:33:22;45.13;37.28;54.20;;
69610;Laerm;56816;52.192;4.474;2022-08-20T00:33:32;53.05;40.11;59.97;;
69610;Laerm;56816;52.192;4.474;2022-08-20T00:33:43;38.56;34.30;42.29;;
69610;Laerm;56816;52.192;4.474;2022-08-20T00:33:53;38.28;35.72;41.08;;
69610;Laerm;56816;52.192;4.474;2022-08-20T00:34:04;36.85;34.53;39.64;;
69610;Laerm;56816;52.192;4.474;2022-08-20T00:34:14;36.93;35.02;39.45;;
69610;Laerm;56816;52.192;4.474;2022-08-20T00:34:24;42.28;35.01;50.96;;
69610;Laerm;56816;52.192;4.474;2022-08-20T00:34:35;53.08;41.77;59.59;;
69610;Laerm;56816;52.192;4.474;2022-08-20T00:34:45;42.39;36.93;46.20;;
69610;Laerm;56816;52.192;4.474;2022-08-20T00:34:56;50.81;35.62;58.18;;
69610;Laerm;56816;52.192;4.474;2022-08-20T00:35:07;42.60;35.93;52.78;;
69610;Laerm;56816;52.192;4.474;2022-08-20T00:35:18;36.15;32.90;39.81;;
69610;Laerm;56816;52.192;4.474;2022-08-20T00:35:30;38.67;34.96;43.01;;
69610;Laerm;56816;52.192;4.474;2022-08-20T00:35:42;36.83;34.00;40.54;;
69610;Laerm;56816;52.192;4.474;2022-08-20T00:35:54;35.74;32.97;39.87;;
69610;Laerm;56816;52.192;4.474;2022-08-20T00:36:05;37.29;33.19;43.28;;
69610;Laerm;56816;52.192;4.474;2022-08-20T00:36:18;39.62;35.84;42.61;;
69610;Laerm;56816;52.192;4.474;2022-08-20T00:36:28;37.88;33.97;42.62;;
69610;Laerm;56816;52.192;4.474;2022-08-20T00:36:39;38.41;35.09;41.94;;
69610;Laerm;56816;52.192;4.474;2022-08-20T00:36:49;39.41;35.66;42.92;;
69610;Laerm;56816;52.192;4.474;2022-08-20T00:36:59;40.93;36.77;44.45;;
69610;Laerm;56816;52.192;4.474;2022-08-20T00:37:09;47.63;41.25;52.88;;
69610;Laerm;56816;52.192;4.474;2022-08-20T00:37:20;49.27;44.81;54.04;;
69610;Laerm;56816;52.192;4.474;2022-08-20T00:37:30;45.64;41.01;48.47;;
69610;Laerm;56816;52.192;4.474;2022-08-20T00:37:40;41.11;37.09;44.55;;
69610;Laerm;56816;52.192;4.474;2022-08-20T00:37:51;38.47;35.26;41.86;;
69610;Laerm;56816;52.192;4.474;2022-08-20T00:38:01;36.89;34.14;39.80;;
69610;Laerm;56816;52.192;4.474;2022-08-20T00:38:11;37.31;33.46;41.01;;
69610;Laerm;56816;52.192;4.474;2022-08-20T00:38:22;35.14;32.35;38.81;;
69610;Laerm;56816;52.192;4.474;2022-08-20T00:38:33;35.29;32.48;39.24;;
69610;Laerm;56816;52.192;4.474;2022-08-20T00:38:44;36.35;33.68;39.23;;
69610;Laerm;56816;52.192;4.474;2022-08-20T00:38:55;36.94;33.95;40.89;;
69610;Laerm;56816;52.192;4.474;2022-08-20T00:39:05;40.98;35.05;46.50;;
69610;Laerm;56816;52.192;4.474;2022-08-20T00:39:15;45.33;40.21;49.36;;
69610;Laerm;56816;52.192;4.474;2022-08-20T00:39:25;46.83;42.28;52.03;;
69610;Laerm;56816;52.192;4.474;2022-08-20T00:39:35;43.12;37.91;46.74;;
69610;Laerm;56816;52.192;4.474;2022-08-20T00:39:46;38.96;36.20;41.50;;
69610;Laerm;56816;52.192;4.474;2022-08-20T00:39:56;36.30;33.77;40.13;;
69610;Laerm;56816;52.192;4.474;2022-08-20T00:40:08;35.37;33.14;39.18;;
69610;Laerm;56816;52.192;4.474;2022-08-20T00:40:20;35.61;32.82;39.19;;
69610;Laerm;56816;52.192;4.474;2022-08-20T00:40:40;35.08;32.56;38.61;;
69610;Laerm;56816;52.192;4.474;2022-08-20T00:40:53;35.80;33.40;39.28;;
69610;Laerm;56816;52.192;4.474;2022-08-20T00:41:03;35.89;33.30;39.13;;
69610;Laerm;56816;52.192;4.474;2022-08-20T00:41:16;38.05;35.49;40.74;;
69610;Laerm;56816;52.192;4.474;2022-08-20T00:41:27;36.93;34.18;39.67;;
69610;Laerm;56816;52.192;4.474;2022-08-20T00:41:37;36.70;33.74;39.72;;
69610;Laerm;56816;52.192;4.474;2022-08-20T00:41:47;35.57;33.35;37.85;;
69610;Laerm;56816;52.192;4.474;2022-08-20T00:41:58;36.11;33.24;38.69;;
69610;Laerm;56816;52.192;4.474;2022-08-20T00:42:08;36.69;34.14;39.19;;
69610;Laerm;56816;52.192;4.474;2022-08-20T00:42:18;37.20;34.53;41.82;;
69610;Laerm;56816;52.192;4.474;2022-08-20T00:42:29;35.61;32.87;38.13;;
69610;Laerm;56816;52.192;4.474;2022-08-20T00:42:46;35.62;33.17;39.02;;
69610;Laerm;56816;52.192;4.474;2022-08-20T00:42:59;34.92;32.35;37.96;;
69610;Laerm;56816;52.192;4.474;2022-08-20T00:43:41;35.18;32.10;41.85;;
69610;Laerm;56816;52.192;4.474;2022-08-20T00:44:15;35.32;32.70;38.98;;
69610;Laerm;56816;52.192;4.474;2022-08-20T00:44:26;35.70;32.42;41.22;;
69610;Laerm;56816;52.192;4.474;2022-08-20T00:44:39;35.16;32.40;41.54;;
69610;Laerm;56816;52.192;4.474;2022-08-20T00:44:52;35.45;32.57;39.74;;
69610;Laerm;56816;52.192;4.474;2022-08-20T00:45:03;33.93;31.46;36.66;;
69610;Laerm;56816;52.192;4.474;2022-08-20T00:45:14;34.35;32.06;36.57;;
69610;Laerm;56816;52.192;4.474;2022-08-20T00:45:26;34.91;31.99;37.40;;
69610;Laerm;56816;52.192;4.474;2022-08-20T00:45:36;35.68;32.70;38.37;;
69610;Laerm;56816;52.192;4.474;2022-08-20T00:45:46;35.62;33.45;38.13;;
69610;Laerm;56816;52.192;4.474;2022-08-20T00:45:58;36.28;33.02;39.95;;
69610;Laerm;56816;52.192;4.474;2022-08-20T00:46:22;35.95;33.86;38.20;;
69610;Laerm;56816;52.192;4.474;2022-08-20T00:46:33;35.36;32.92;41.04;;
69610;Laerm;56816;52.192;4.474;2022-08-20T00:46:44;35.49;33.21;38.75;;
69610;Laerm;56816;52.192;4.474;2022-08-20T00:46:55;35.24;32.75;37.92;;
69610;Laerm;56816;52.192;4.474;2022-08-20T00:47:05;35.43;33.43;40.16;;
69610;Laerm;56816;52.192;4.474;2022-08-20T00:47:15;35.74;33.69;38.66;;
69610;Laerm;56816;52.192;4.474;2022-08-20T00:47:25;36.75;34.40;40.04;;
69610;Laerm;56816;52.192;4.474;2022-08-20T00:47:37;36.84;33.53;40.27;;
69610;Laerm;56816;52.192;4.474;2022-08-20T00:47:56;37.00;33.27;41.62;;
69610;Laerm;56816;52.192;4.474;2022-08-20T00:48:07;35.77;32.77;39.49;;
69610;Laerm;56816;52.192;4.474;2022-08-20T00:48:18;35.71;33.30;38.04;;
69610;Laerm;56816;52.192;4.474;2022-08-20T00:48:29;37.41;34.32;45.34;;
69610;Laerm;56816;52.192;4.474;2022-08-20T00:48:42;36.86;33.81;41.62;;
69610;Laerm;56816;52.192;4.474;2022-08-20T00:48:53;36.21;33.30;40.13;;
69610;Laerm;56816;52.192;4.474;2022-08-20T00:49:05;35.07;33.07;37.49;;
69610;Laerm;56816;52.192;4.474;2022-08-20T00:49:21;36.43;33.71;38.89;;
69610;Laerm;56816;52.192;4.474;2022-08-20T00:49:33;37.94;34.34;41.73;;
69610;Laerm;56816;52.192;4.474;2022-08-20T00:49:43;44.30;36.69;52.51;;
69610;Laerm;56816;52.192;4.474;2022-08-20T00:49:54;51.69;46.09;55.77;;
69610;Laerm;56816;52.192;4.474;2022-08-20T00:50:05;47.42;43.27;50.94;;
69610;Laerm;56816;52.192;4.474;2022-08-20T00:50:18;47.44;40.72;51.83;;
69610;Laerm;56816;52.192;4.474;2022-08-20T00:50:31;40.78;38.32;44.07;;
69610;Laerm;56816;52.192;4.474;2022-08-20T00:50:43;38.53;35.46;42.10;;
69610;Laerm;56816;52.192;4.474;2022-08-20T00:50:55;38.42;35.59;41.16;;
69610;Laerm;56816;52.192;4.474;2022-08-20T00:51:11;40.21;36.70;45.86;;
69610;Laerm;56816;52.192;4.474;2022-08-20T00:51:50;38.35;34.19;42.74;;
69610;Laerm;56816;52.192;4.474;2022-08-20T00:52:13;36.55;33.25;40.25;;
69610;Laerm;56816;52.192;4.474;2022-08-20T00:52:24;36.45;32.91;41.90;;
69610;Laerm;56816;52.192;4.474;2022-08-20T00:52:34;35.93;32.73;39.78;;
69610;Laerm;56816;52.192;4.474;2022-08-20T00:52:47;37.45;33.87;41.33;;
69610;Laerm;56816;52.192;4.474;2022-08-20T00:52:58;38.30;35.00;41.45;;
69610;Laerm;56816;52.192;4.474;2022-08-20T00:53:09;37.76;34.67;41.53;;
69610;Laerm;56816;52.192;4.474;2022-08-20T00:53:19;36.17;32.91;39.20;;
69610;Laerm;56816;52.192;4.474;2022-08-20T00:53:32;37.20;33.96;40.69;;
69610;Laerm;56816;52.192;4.474;2022-08-20T00:53:43;35.99;33.25;39.01;;
69610;Laerm;56816;52.192;4.474;2022-08-20T00:53:54;36.01;33.92;39.09;;
69610;Laerm;56816;52.192;4.474;2022-08-20T00:54:28;36.22;32.85;39.69;;
69610;Laerm;56816;52.192;4.474;2022-08-20T00:54:46;36.11;33.38;39.47;;
69610;Laerm;56816;52.192;4.474;2022-08-20T00:54:58;35.71;32.85;40.95;;
69610;Laerm;56816;52.192;4.474;2022-08-20T00:55:09;37.09;33.67;42.11;;
69610;Laerm;56816;52.192;4.474;2022-08-20T00:55:21;36.46;33.65;41.32;;
69610;Laerm;56816;52.192;4.474;2022-08-20T00:55:33;36.51;33.87;39.75;;
69610;Laerm;56816;52.192;4.474;2022-08-20T00:55:44;37.57;34.37;41.22;;
69610;Laerm;56816;52.192;4.474;2022-08-20T00:55:55;35.55;33.36;37.87;;
69610;Laerm;56816;52.192;4.474;2022-08-20T00:56:06;35.18;33.04;37.96;;
69610;Laerm;56816;52.192;4.474;2022-08-20T00:56:16;35.67;33.36;39.03;;
69610;Laerm;56816;52.192;4.474;2022-08-20T00:56:27;35.14;32.70;40.65;;
69610;Laerm;56816;52.192;4.474;2022-08-20T00:56:39;34.68;32.78;37.46;;
69610;Laerm;56816;52.192;4.474;2022-08-20T00:56:51;34.43;31.94;38.17;;
69610;Laerm;56816;52.192;4.474;2022-08-20T00:57:05;34.32;32.03;36.88;;
69610;Laerm;56816;52.192;4.474;2022-08-20T00:57:24;35.13;32.35;40.90;;
69610;Laerm;56816;52.192;4.474;2022-08-20T00:57:36;35.39;32.15;38.76;;
69610;Laerm;56816;52.192;4.474;2022-08-20T00:57:48;35.92;33.35;45.20;;
69610;Laerm;56816;52.192;4.474;2022-08-20T00:58:04;35.00;32.39;38.31;;
69610;Laerm;56816;52.192;4.474;2022-08-20T00:58:17;35.18;33.03;38.26;;
69610;Laerm;56816;52.192;4.474;2022-08-20T00:58:27;34.47;31.84;36.59;;
69610;Laerm;56816;52.192;4.474;2022-08-20T00:58:38;34.80;31.68;38.44;;
69610;Laerm;56816;52.192;4.474;2022-08-20T00:58:49;34.37;32.26;37.09;;
69610;Laerm;56816;52.192;4.474;2022-08-20T00:59:02;34.44;32.25;37.53;;
69610;Laerm;56816;52.192;4.474;2022-08-20T00:59:14;34.52;32.44;37.05;;
69610;Laerm;56816;52.192;4.474;2022-08-20T00:59:27;35.05;32.14;37.89;;
69610;Laerm;56816;52.192;4.474;2022-08-20T00:59:39;37.81;33.43;45.57;;
69610;Laerm;56816;52.192;4.474;2022-08-20T00:59:50;37.92;34.51;41.38;;
69610;Laerm;56816;52.192;4.474;2022-08-20T01:00:03;42.30;38.69;45.32;;
69610;Laerm;56816;52.192;4.474;2022-08-20T01:00:23;35.15;32.06;39.62;;
69610;Laerm;56816;52.192;4.474;2022-08-20T01:00:37;53.82;36.03;65.95;;
69610;Laerm;56816;52.192;4.474;2022-08-20T01:00:48;38.50;34.80;45.62;;
69610;Laerm;56816;52.192;4.474;2022-08-20T01:00:58;42.37;37.55;48.14;;
69610;Laerm;56816;52.192;4.474;2022-08-20T01:01:09;35.67;32.90;38.79;;
69610;Laerm;56816;52.192;4.474;2022-08-20T01:01:19;34.50;31.10;39.10;;
69610;Laerm;56816;52.192;4.474;2022-08-20T01:01:31;35.39;32.47;39.69;;
69610;Laerm;56816;52.192;4.474;2022-08-20T01:01:43;36.15;33.01;39.51;;
69610;Laerm;56816;52.192;4.474;2022-08-20T01:01:54;35.07;32.48;38.26;;
69610;Laerm;56816;52.192;4.474;2022-08-20T01:02:07;34.91;32.75;37.39;;
69610;Laerm;56816;52.192;4.474;2022-08-20T01:02:18;34.71;32.41;37.47;;
69610;Laerm;56816;52.192;4.474;2022-08-20T01:02:30;36.36;33.18;40.52;;
69610;Laerm;56816;52.192;4.474;2022-08-20T01:02:41;35.35;31.32;40.74;;
69610;Laerm;56816;52.192;4.474;2022-08-20T01:02:52;34.89;32.50;37.94;;
69610;Laerm;56816;52.192;4.474;2022-08-20T01:03:03;35.24;32.63;39.00;;
69610;Laerm;56816;52.192;4.474;2022-08-20T01:03:17;35.68;32.48;39.35;;
69610;Laerm;56816;52.192;4.474;2022-08-20T01:03:29;37.38;34.34;41.37;;
69610;Laerm;56816;52.192;4.474;2022-08-20T01:03:39;37.32;33.72;42.61;;
69610;Laerm;56816;52.192;4.474;2022-08-20T01:03:51;36.08;32.85;40.05;;
69610;Laerm;56816;52.192;4.474;2022-08-20T01:04:05;36.69;33.49;40.27;;
69610;Laerm;56816;52.192;4.474;2022-08-20T01:04:15;37.72;33.16;41.97;;
69610;Laerm;56816;52.192;4.474;2022-08-20T01:04:27;37.41;33.75;43.32;;
69610;Laerm;56816;52.192;4.474;2022-08-20T01:04:38;37.54;33.40;44.03;;
69610;Laerm;56816;52.192;4.474;2022-08-20T01:04:48;36.89;32.93;41.67;;
69610;Laerm;56816;52.192;4.474;2022-08-20T01:05:05;36.65;33.51;40.86;;
69610;Laerm;56816;52.192;4.474;2022-08-20T01:05:18;36.43;33.10;41.44;;
69610;Laerm;56816;52.192;4.474;2022-08-20T01:05:28;36.04;32.07;40.50;;
69610;Laerm;56816;52.192;4.474;2022-08-20T01:05:39;34.42;31.69;37.64;;
69610;Laerm;56816;52.192;4.474;2022-08-20T01:05:51;35.55;31.90;40.06;;
69610;Laerm;56816;52.192;4.474;2022-08-20T01:06:01;36.42;33.24;40.13;;